createdAt,value
2019-05-23T00:00:53.808Z,10.90
2019-05-23T00:03:27.282Z,10.90
2019-05-23T00:06:03.344Z,10.90
2019-05-23T00:08:32.202Z,10.80
2019-05-23T00:11:04.191Z,10.60
2019-05-23T00:13:35.809Z,10.60
2019-05-23T00:16:05.046Z,10.70
2019-05-23T00:18:35.699Z,10.70
2019-05-23T00:21:05.199Z,10.60
2019-05-23T00:23:34.780Z,10.50
2019-05-23T00:26:03.731Z,10.40
2019-05-23T00:28:33.038Z,10.30
2019-05-23T00:31:19.335Z,10.40
2019-05-23T00:33:49.383Z,10.30
2019-05-23T00:36:18.163Z,10.20
2019-05-23T00:38:47.325Z,10.20
2019-05-23T00:41:15.890Z,10.10
2019-05-23T00:43:44.821Z,10.10
2019-05-23T00:46:14.977Z,10.00
2019-05-23T00:48:44.567Z,10.00
2019-05-23T00:51:13.351Z,10.00
2019-05-23T00:53:42.204Z,10.10
2019-05-23T00:56:10.736Z,10.00
2019-05-23T00:58:39.211Z,9.90
2019-05-23T01:01:08.857Z,9.80
2019-05-23T01:03:38.871Z,9.80
2019-05-23T01:06:07.611Z,9.80
2019-05-23T01:08:36.959Z,9.60
2019-05-23T01:11:06.635Z,9.40
2019-05-23T01:13:35.679Z,9.50
2019-05-23T01:16:05.138Z,9.50
2019-05-23T01:18:34.053Z,9.30
2019-05-23T01:21:13.138Z,9.20
2019-05-23T01:23:43.254Z,9.00
2019-05-23T01:26:12.311Z,9.00
2019-05-23T01:28:40.837Z,9.10
2019-05-23T01:31:16.620Z,9.10
2019-05-23T01:33:47.083Z,9.00
2019-05-23T01:36:16.397Z,9.10
2019-05-23T01:38:45.171Z,9.10
2019-05-23T01:41:14.614Z,9.00
2019-05-23T01:43:43.956Z,8.90
2019-05-23T01:46:12.925Z,9.00
2019-05-23T01:48:42.626Z,8.90
2019-05-23T01:51:11.321Z,8.90
2019-05-23T01:53:40.231Z,8.90
2019-05-23T01:56:09.487Z,8.90
2019-05-23T01:58:38.673Z,8.80
2019-05-23T02:01:07.559Z,8.80
2019-05-23T02:03:36.031Z,8.80
2019-05-23T02:06:04.990Z,8.90
2019-05-23T02:08:34.327Z,8.80
2019-05-23T02:11:02.802Z,8.80
2019-05-23T02:13:31.551Z,8.80
2019-05-23T02:16:00.723Z,8.70
2019-05-23T02:18:29.303Z,8.60
2019-05-23T02:20:58.381Z,8.70
2019-05-23T02:23:28.238Z,8.60
2019-05-23T02:25:57.751Z,8.40
2019-05-23T02:28:26.999Z,8.40
2019-05-23T02:30:55.882Z,8.40
2019-05-23T02:33:25.329Z,8.40
2019-05-23T02:35:53.725Z,8.40
2019-05-23T02:38:23.764Z,8.50
2019-05-23T02:40:56.943Z,8.50
2019-05-23T02:43:26.356Z,8.40
2019-05-23T02:45:57.231Z,8.40
2019-05-23T02:48:30.354Z,8.40
2019-05-23T02:51:08.211Z,8.50
2019-05-23T02:53:38.763Z,8.40
2019-05-23T02:56:11.623Z,8.40
2019-05-23T02:59:00.603Z,8.30
2019-05-23T03:01:36.947Z,8.40
2019-05-23T03:04:17.778Z,8.50
2019-05-23T03:06:46.195Z,8.70
2019-05-23T03:09:16.577Z,8.90
2019-05-23T03:11:47.056Z,9.10
2019-05-23T03:14:18.983Z,9.20
2019-05-23T03:16:52.100Z,9.20
2019-05-23T03:19:27.148Z,9.30
2019-05-23T03:21:58.431Z,9.30
2019-05-23T03:24:28.778Z,9.40
2019-05-23T03:27:03.718Z,9.40
2019-05-23T03:29:34.369Z,9.40
2019-05-23T03:32:04.897Z,9.40
2019-05-23T03:34:37.995Z,9.30
2019-05-23T03:37:06.905Z,9.30
2019-05-23T03:39:35.651Z,9.30
2019-05-23T03:42:05.151Z,9.10
2019-05-23T03:44:34.050Z,9.10
2019-05-23T03:47:04.108Z,9.10
2019-05-23T03:49:34.212Z,9.00
2019-05-23T03:52:02.687Z,8.70
2019-05-23T03:54:32.836Z,8.70
2019-05-23T03:57:01.616Z,8.50
2019-05-23T03:59:31.418Z,8.40
2019-05-23T04:02:01.556Z,8.40
2019-05-23T04:04:32.089Z,8.50
2019-05-23T04:07:00.863Z,8.60
2019-05-23T04:09:30.008Z,8.70
2019-05-23T04:11:58.583Z,8.60
2019-05-23T04:14:27.656Z,8.50
2019-05-23T04:16:56.737Z,8.50
2019-05-23T04:19:25.399Z,8.60
2019-05-23T04:21:54.552Z,8.70
2019-05-23T04:24:23.324Z,8.50
2019-05-23T04:26:51.739Z,8.50
2019-05-23T04:29:20.311Z,8.50
2019-05-23T04:32:06.224Z,8.60
2019-05-23T04:34:19.337Z,8.60
2019-05-23T04:36:48.203Z,8.60
2019-05-23T04:39:16.612Z,8.80
2019-05-23T04:41:45.491Z,8.90
2019-05-23T04:44:15.448Z,8.90
2019-05-23T04:46:43.903Z,8.90
2019-05-23T04:49:12.685Z,9.00
2019-05-23T04:51:41.355Z,9.00
2019-05-23T04:54:11.032Z,9.10
2019-05-23T04:56:39.627Z,9.30
2019-05-23T04:59:08.124Z,9.50
2019-05-23T05:01:38.611Z,9.60
2019-05-23T05:04:07.739Z,9.60
2019-05-23T05:06:36.233Z,9.70
2019-05-23T05:09:08.039Z,9.80
2019-05-23T05:11:36.453Z,10.00
2019-05-23T05:14:05.631Z,10.20
2019-05-23T05:16:34.038Z,10.50
2019-05-23T05:19:02.533Z,10.70
2019-05-23T05:21:31.295Z,10.90
2019-05-23T05:23:59.843Z,10.90
2019-05-23T05:26:28.326Z,11.00
2019-05-23T05:28:56.817Z,11.20
2019-05-23T05:31:25.228Z,11.30
2019-05-23T05:33:53.679Z,11.20
2019-05-23T05:36:22.166Z,11.20
2019-05-23T05:38:50.943Z,11.20
2019-05-23T05:41:20.609Z,11.30
2019-05-23T05:43:49.561Z,11.50
2019-05-23T05:46:18.843Z,11.60
2019-05-23T05:48:47.700Z,11.70
2019-05-23T05:51:16.381Z,11.90
2019-05-23T05:53:45.065Z,11.70
2019-05-23T05:56:13.555Z,11.80
2019-05-23T05:58:42.302Z,11.80
2019-05-23T06:01:12.569Z,11.80
2019-05-23T06:03:41.323Z,11.80
2019-05-23T06:06:17.720Z,11.90
2019-05-23T06:08:53.774Z,12.00
2019-05-23T06:13:50.287Z,12.30
2019-05-23T06:16:18.790Z,12.50
2019-05-23T06:18:47.634Z,12.70
2019-05-23T06:21:18.464Z,12.90
2019-05-23T06:23:47.655Z,12.90
2019-05-23T06:26:16.095Z,13.00
2019-05-23T06:28:45.491Z,13.10
2019-05-23T06:31:15.309Z,13.20
2019-05-23T06:33:44.332Z,13.20
2019-05-23T06:36:13.174Z,13.40
2019-05-23T06:38:42.614Z,13.50
2019-05-23T06:41:11.920Z,13.60
2019-05-23T06:43:40.770Z,13.70
2019-05-23T06:46:09.358Z,14.00
2019-05-23T06:48:37.939Z,14.20
2019-05-23T06:51:06.352Z,14.30
2019-05-23T06:53:34.781Z,14.60
2019-05-23T06:56:03.181Z,14.80
2019-05-23T06:58:31.958Z,15.00
2019-05-23T07:01:00.376Z,15.30
2019-05-23T07:03:41.489Z,15.40
2019-05-23T07:05:59.264Z,15.50
2019-05-23T07:08:30.537Z,15.60
2019-05-23T07:13:29.606Z,16.10
2019-05-23T07:15:58.264Z,16.30
2019-05-23T07:18:27.386Z,16.30
2019-05-23T07:20:56.158Z,16.60
2019-05-23T07:23:24.647Z,16.90
2019-05-23T07:25:53.063Z,16.90
2019-05-23T07:28:21.539Z,17.00
2019-05-23T07:30:50.259Z,17.30
2019-05-23T07:33:18.760Z,17.30
2019-05-23T07:35:47.430Z,17.40
2019-05-23T07:38:16.158Z,17.60
2019-05-23T07:43:13.955Z,18.70
2019-05-23T07:48:16.133Z,27.40
2019-05-23T07:50:45.272Z,28.60
2019-05-23T07:53:15.656Z,29.80
2019-05-23T07:55:51.808Z,29.90
2019-05-23T08:00:56.135Z,31.70
2019-05-23T08:03:28.231Z,31.70
2019-05-23T08:05:57.293Z,32.50
2019-05-23T08:08:25.876Z,32.90
2019-05-23T08:10:54.295Z,32.80
2019-05-23T08:13:22.927Z,33.20
2019-05-23T08:15:52.377Z,34.10
2019-05-23T08:18:21.138Z,33.10
2019-05-23T08:20:49.650Z,34.20
2019-05-23T08:23:18.243Z,34.90
2019-05-23T08:25:47.317Z,33.70
2019-05-23T08:28:16.159Z,34.10
2019-05-23T08:30:44.829Z,34.40
2019-05-23T08:33:15.641Z,35.00
2019-05-23T08:35:45.391Z,35.10
2019-05-23T08:38:14.531Z,35.90
2019-05-23T08:40:43.669Z,36.50
2019-05-23T08:43:12.544Z,36.20
2019-05-23T08:45:41.427Z,36.00
2019-05-23T09:03:07.619Z,35.40
2019-05-23T09:05:38.526Z,35.30
2019-05-23T09:08:09.076Z,34.10
2019-05-23T09:10:39.052Z,34.20
2019-05-23T09:13:08.515Z,34.90
2019-05-23T09:15:37.219Z,34.50
2019-05-23T09:18:05.927Z,35.80
2019-05-23T09:20:34.818Z,37.90
2019-05-23T09:23:03.524Z,37.50
2019-05-23T09:25:31.999Z,37.00
2019-05-23T09:28:00.675Z,38.00
2019-05-23T09:30:29.721Z,38.80
2019-05-23T09:32:58.640Z,38.50
2019-05-23T09:37:55.327Z,38.10
2019-05-23T09:40:23.747Z,37.70
2019-05-23T09:42:52.211Z,37.60
2019-05-23T09:45:20.735Z,37.70
2019-05-23T09:50:20.698Z,40.00
2019-05-23T09:52:49.099Z,39.40
2019-05-23T09:55:18.427Z,39.40
2019-05-23T09:57:46.823Z,38.40
2019-05-23T10:00:17.916Z,38.70
2019-05-23T10:02:46.337Z,38.00
2019-05-23T10:05:15.090Z,36.20
2019-05-23T10:07:43.514Z,34.00
2019-05-23T10:10:12.947Z,36.30
2019-05-23T10:12:41.635Z,37.20
2019-05-23T10:15:12.803Z,38.60
2019-05-23T10:17:41.322Z,37.40
2019-05-23T10:20:10.175Z,37.90
2019-05-23T10:22:38.579Z,33.90
2019-05-23T10:25:07.538Z,33.50
2019-05-23T10:27:36.027Z,34.20
2019-05-23T10:30:08.881Z,34.10
2019-05-23T10:32:37.356Z,35.80
2019-05-23T10:35:07.997Z,36.30
2019-05-23T10:37:36.399Z,38.20
2019-05-23T10:40:05.649Z,39.90
2019-05-23T10:42:34.227Z,39.20
2019-05-23T10:45:03.405Z,37.30
2019-05-23T10:47:32.215Z,36.20
2019-05-23T10:50:06.822Z,34.90
2019-05-23T11:07:23.035Z,30.30
2019-05-23T11:09:51.506Z,31.40
2019-05-23T11:12:20.195Z,32.60
2019-05-23T11:14:48.667Z,32.90
2019-05-23T11:17:17.740Z,32.00
2019-05-23T11:19:46.671Z,31.50
2019-05-23T11:22:15.525Z,31.20
2019-05-23T11:24:43.984Z,30.80
2019-05-23T11:27:12.477Z,30.90
2019-05-23T11:29:41.045Z,31.50
2019-05-23T11:32:10.293Z,31.30
2019-05-23T11:34:38.737Z,32.10
2019-05-23T11:37:07.224Z,32.10
2019-05-23T11:39:42.138Z,30.90
2019-05-23T11:42:07.513Z,30.30
2019-05-23T11:44:35.908Z,29.90
2019-05-23T11:47:05.046Z,29.50
2019-05-23T11:49:34.570Z,29.70
2019-05-23T11:52:03.217Z,30.00
2019-05-23T11:54:31.990Z,29.30
2019-05-23T11:57:00.483Z,29.10
2019-05-23T11:59:29.304Z,29.30
2019-05-23T12:02:00.121Z,27.20
2019-05-23T12:04:28.599Z,26.10
2019-05-23T12:06:58.659Z,27.70
2019-05-23T12:09:27.626Z,27.90
2019-05-23T12:11:56.129Z,28.20
2019-05-23T12:14:24.767Z,28.50
2019-05-23T12:16:53.356Z,29.00
2019-05-23T12:19:21.839Z,28.70
2019-05-23T12:21:50.406Z,28.20
2019-05-23T12:24:19.148Z,27.90
2019-05-23T12:26:47.602Z,28.20
2019-05-23T12:29:16.272Z,27.90
2019-05-23T12:31:48.865Z,26.90
2019-05-23T12:34:14.878Z,26.50
2019-05-23T12:36:43.365Z,27.40
2019-05-23T12:39:11.875Z,28.00
2019-05-23T12:41:41.954Z,28.30
2019-05-23T12:44:10.768Z,29.10
2019-05-23T12:46:39.277Z,29.30
2019-05-23T12:49:12.507Z,29.40
2019-05-23T12:51:42.615Z,28.90
2019-05-23T12:54:11.127Z,28.90
2019-05-23T12:56:40.455Z,28.20
2019-05-23T12:59:09.547Z,28.00
2019-05-23T13:01:39.767Z,27.30
2019-05-23T13:04:10.342Z,26.50
2019-05-23T13:06:39.241Z,27.20
2019-05-23T13:09:09.366Z,27.80
2019-05-23T13:11:38.513Z,27.40
2019-05-23T13:14:08.458Z,27.10
2019-05-23T13:16:36.951Z,27.00
2019-05-23T13:19:05.853Z,26.40
2019-05-23T13:21:34.530Z,26.90
2019-05-23T13:24:03.012Z,27.10
2019-05-23T13:26:32.104Z,27.40
2019-05-23T13:29:00.523Z,26.90
2019-05-23T13:31:29.200Z,25.90
2019-05-23T13:33:57.891Z,26.10
2019-05-23T13:36:26.379Z,26.20
2019-05-23T13:38:54.964Z,25.50
2019-05-23T13:41:23.483Z,26.20
2019-05-23T13:43:52.257Z,26.40
2019-05-23T13:46:20.679Z,26.50
2019-05-23T13:48:49.088Z,26.40
2019-05-23T13:51:17.487Z,26.30
2019-05-23T13:53:45.976Z,26.40
2019-05-23T13:56:14.439Z,25.90
2019-05-23T13:58:43.459Z,26.10
2019-05-23T14:01:12.320Z,26.70
2019-05-23T14:03:40.812Z,26.50
2019-05-23T14:06:09.844Z,26.80
2019-05-23T14:08:38.619Z,26.30
2019-05-23T14:11:07.028Z,26.50
2019-05-23T14:13:35.618Z,26.60
2019-05-23T14:16:05.627Z,26.30
2019-05-23T14:18:35.487Z,26.50
2019-05-23T14:21:04.545Z,26.40
2019-05-23T14:23:34.026Z,26.50
2019-05-23T14:26:02.679Z,26.30
2019-05-23T14:28:31.536Z,26.10
2019-05-23T14:31:07.683Z,25.70
2019-05-23T14:33:43.846Z,25.60
2019-05-23T14:36:32.142Z,25.80
2019-05-23T14:39:02.023Z,26.00
2019-05-23T14:41:44.752Z,26.40
2019-05-23T14:44:02.364Z,26.50
2019-05-23T14:46:32.408Z,26.40
2019-05-23T14:49:11.619Z,26.50
2019-05-23T14:51:58.435Z,26.20
2019-05-23T14:54:35.111Z,25.80
2019-05-23T14:57:05.927Z,26.20
2019-05-23T14:59:34.837Z,26.10
2019-05-23T15:02:05.315Z,25.50
2019-05-23T15:04:33.799Z,25.70
2019-05-23T15:07:02.276Z,25.50
2019-05-23T15:09:30.688Z,25.80
2019-05-23T15:11:59.679Z,25.80
2019-05-23T15:14:28.262Z,25.50
2019-05-23T15:16:56.655Z,25.60
2019-05-23T15:19:39.135Z,25.60
2019-05-23T15:21:55.306Z,25.60
2019-05-23T15:24:24.342Z,25.60
2019-05-23T15:26:52.815Z,25.50
2019-05-23T15:29:21.217Z,25.60
2019-05-23T15:32:01.673Z,25.60
2019-05-23T15:34:19.968Z,25.60
2019-05-23T15:36:48.377Z,25.60
2019-05-23T15:39:18.285Z,25.40
2019-05-23T15:41:46.966Z,25.00
2019-05-23T15:44:25.147Z,25.10
2019-05-23T15:46:45.677Z,24.80
2019-05-23T15:49:14.802Z,24.90
2019-05-23T15:51:44.842Z,25.10
2019-05-23T15:54:14.963Z,25.10
2019-05-23T15:56:45.007Z,25.00
2019-05-23T15:59:27.483Z,25.00
2019-05-23T16:01:57.527Z,25.20
2019-05-23T16:04:26.219Z,25.20
2019-05-23T16:06:55.490Z,25.00
2019-05-23T16:09:29.939Z,24.80
2019-05-23T16:11:55.108Z,24.70
2019-05-23T16:14:23.581Z,24.40
2019-05-23T16:16:56.167Z,24.60
2019-05-23T16:19:23.161Z,24.60
2019-05-23T16:21:51.564Z,24.70
2019-05-23T16:24:20.041Z,24.50
2019-05-23T16:26:48.462Z,24.50
2019-05-23T16:29:17.000Z,24.50
2019-05-23T16:31:45.567Z,24.30
2019-05-23T16:34:14.336Z,24.30
2019-05-23T16:36:42.915Z,24.30
2019-05-23T16:39:11.754Z,24.00
2019-05-23T16:41:40.160Z,24.00
2019-05-23T16:44:08.641Z,23.90
2019-05-23T16:46:37.068Z,23.70
2019-05-23T16:49:05.924Z,23.60
2019-05-23T16:51:34.329Z,23.40
2019-05-23T16:54:02.833Z,23.30
2019-05-23T16:56:45.079Z,23.20
2019-05-23T16:59:15.219Z,23.20
2019-05-23T17:01:57.895Z,23.00
2019-05-23T17:04:31.971Z,22.90
2019-05-23T17:07:07.947Z,22.90
2019-05-23T17:12:26.723Z,22.70
2019-05-23T17:15:02.719Z,22.50
2019-05-23T17:17:49.516Z,22.40
2019-05-23T17:20:19.841Z,22.30
2019-05-23T17:23:00.370Z,22.20
2019-05-23T17:25:36.241Z,22.00
2019-05-23T17:28:12.775Z,22.00
2019-05-23T17:30:45.767Z,21.90
2019-05-23T17:33:14.774Z,21.90
2019-05-23T17:35:43.235Z,21.90
2019-05-23T17:38:11.964Z,21.80
2019-05-23T17:40:40.438Z,21.80
2019-05-23T17:43:09.107Z,21.80
2019-05-23T17:45:37.731Z,21.80
2019-05-23T17:48:06.220Z,21.80
2019-05-23T17:50:35.140Z,21.80
2019-05-23T17:53:03.726Z,21.80
2019-05-23T17:55:32.989Z,21.80
2019-05-23T17:58:02.193Z,21.80
2019-05-23T18:00:41.355Z,21.80
2019-05-23T18:03:10.053Z,21.70
2019-05-23T18:05:38.451Z,21.60
2019-05-23T18:08:09.811Z,21.60
